Time,TemperatureF,DewpointF,PressureIn,WindDirection,WindDirectionDegrees,WindSpeedMPH,WindSpeedGustMPH,Humidity,HourlyPrecipIn,Conditions,Clouds,dailyrainin,SoftwareType,DateUTC
2013-08-23 01:22:00,70.0,62.0,29.63,South,178,1.0,6.0,75,0.00,,,0.00,,2013-08-23 05:22:00,
2013-08-23 01:34:00,70.0,62.0,29.63,South,178,1.0,6.0,75,0.00,,,0.00,,2013-08-23 05:34:00,
2013-08-23 01:52:00,70.0,62.0,29.63,South,178,1.0,6.0,75,0.00,,,0.00,,2013-08-23 05:52:00,
2013-08-23 02:12:00,69.0,61.0,29.63,SW,220,5.0,8.0,76,0.00,,,0.00,,2013-08-23 06:12:00,
2013-08-23 02:22:00,69.0,61.0,29.63,SW,220,5.0,8.0,76,0.00,,,0.00,,2013-08-23 06:22:00,
2013-08-23 02:32:00,69.0,61.0,29.63,SW,220,5.0,8.0,76,0.00,,,0.00,,2013-08-23 06:32:00,
2013-08-23 02:42:00,69.0,61.0,29.63,SW,220,5.0,8.0,76,0.00,,,0.00,,2013-08-23 06:42:00,
2013-08-23 04:13:00,65.0,58.0,29.66,SSW,200,0.0,0.0,77,0.00,,,0.00,,2013-08-23 08:13:00,
2013-08-23 04:22:00,65.0,58.0,29.66,SSW,200,0.0,0.0,77,0.00,,,0.00,,2013-08-23 08:22:00,
2013-08-23 04:32:00,65.0,58.0,29.66,SSW,200,0.0,0.0,77,0.00,,,0.00,,2013-08-23 08:32:00,
2013-08-23 17:12:00,76.0,52.0,29.84,SSE,157,0.0,5.0,44,0.00,,,0.00,,2013-08-23 21:12:00,
2013-08-23 17:22:00,76.0,52.0,29.84,SSE,157,0.0,5.0,44,0.00,,,0.00,,2013-08-23 21:22:00,
2013-08-23 17:34:00,76.0,52.0,29.84,SSE,157,0.0,5.0,44,0.00,,,0.00,,2013-08-23 21:34:00,
2013-08-23 18:41:00,68.0,49.0,29.88,SSW,213,0.0,0.0,51,0.00,,,0.00,,2013-08-23 22:41:00,
2013-08-23 18:54:00,69.0,47.0,29.88,WNW,288,0.0,1.0,46,0.00,,,0.00,,2013-08-23 22:54:00,
2013-08-23 19:12:00,68.0,49.0,29.88,SSW,213,0.0,0.0,51,0.00,,,0.00,,2013-08-23 23:12:00,
2013-08-23 19:22:00,68.0,49.0,29.88,SSW,213,0.0,0.0,51,0.00,,,0.00,,2013-08-23 23:22:00,
2013-08-23 19:33:00,68.0,49.0,29.88,SSW,213,0.0,0.0,51,0.00,,,0.00,,2013-08-23 23:33:00,
2013-08-23 21:02:00,57.0,48.0,29.96,SW,224,0.0,0.0,72,0.00,,,0.00,,2013-08-24 01:02:00,
2013-08-23 21:22:00,57.0,48.0,29.96,SW,224,0.0,0.0,72,0.00,,,0.00,,2013-08-24 01:22:00,
2013-08-23 21:32:00,57.0,48.0,29.96,SW,224,0.0,0.0,72,0.00,,,0.00,,2013-08-24 01:32:00,
2013-08-23 21:53:00,57.0,48.0,29.96,SW,224,0.0,0.0,72,0.00,,,0.00,,2013-08-24 01:53:00,
2013-08-23 23:11:00,53.0,47.0,30.00,SW,229,0.0,0.0,81,0.00,,,0.00,,2013-08-24 03:11:00,
2013-08-23 23:55:00,53.0,47.0,30.00,SW,229,0.0,0.0,81,0.00,,,0.00,,2013-08-24 03:55:00,